createdAt,value
2023-05-14T00:00:20.888Z,54.10
2023-05-14T00:02:55.271Z,54.10
2023-05-14T00:05:29.261Z,54.20
2023-05-14T00:08:04.550Z,54.20
2023-05-14T00:10:38.779Z,54.20
2023-05-14T00:13:14.463Z,54.30
2023-05-14T00:15:48.259Z,54.20
2023-05-14T00:18:22.308Z,54.20
2023-05-14T00:20:58.473Z,54.30
2023-05-14T00:23:32.210Z,54.40
2023-05-14T00:26:06.672Z,54.40
2023-05-14T00:28:42.268Z,54.40
2023-05-14T00:31:16.062Z,54.60
2023-05-14T00:33:49.624Z,54.70
2023-05-14T00:36:23.552Z,54.70
2023-05-14T00:38:58.016Z,54.70
2023-05-14T00:41:33.099Z,54.80
2023-05-14T00:44:08.380Z,54.90
2023-05-14T00:46:43.783Z,55.00
2023-05-14T00:49:18.734Z,55.10
2023-05-14T00:51:53.215Z,55.10
2023-05-14T00:54:30.828Z,55.10
2023-05-14T00:57:08.412Z,55.20
2023-05-14T00:59:44.061Z,55.20
2023-05-14T01:02:18.155Z,55.10
2023-05-14T01:04:52.495Z,55.10
2023-05-14T01:07:39.521Z,55.00
2023-05-14T01:10:18.890Z,55.30
2023-05-14T01:13:06.234Z,55.30
2023-05-14T01:15:44.243Z,55.30
2023-05-14T01:18:21.635Z,55.30
2023-05-14T01:20:56.701Z,55.30
2023-05-14T01:23:32.008Z,55.40
2023-05-14T01:26:06.370Z,55.30
2023-05-14T01:28:41.441Z,55.40
2023-05-14T01:31:26.578Z,55.50
2023-05-14T01:34:03.689Z,55.60
2023-05-14T01:36:39.960Z,55.60
2023-05-14T01:39:16.626Z,55.70
2023-05-14T01:41:51.756Z,55.80
2023-05-14T01:44:26.125Z,55.90
2023-05-14T01:47:00.936Z,56.00
2023-05-14T01:49:37.262Z,56.00
2023-05-14T01:52:11.546Z,56.00
2023-05-14T01:54:47.934Z,55.90
2023-05-14T01:57:23.157Z,56.10
2023-05-14T01:59:56.811Z,56.20
2023-05-14T02:02:30.446Z,56.20
2023-05-14T02:05:06.794Z,56.40
2023-05-14T02:07:42.005Z,56.40
2023-05-14T02:10:17.185Z,56.50
2023-05-14T02:12:53.568Z,56.60
2023-05-14T02:15:27.253Z,56.70
2023-05-14T02:18:00.900Z,56.80
2023-05-14T02:20:34.958Z,56.90
2023-05-14T02:23:09.142Z,57.00
2023-05-14T02:25:45.216Z,56.90
2023-05-14T02:28:21.103Z,56.90
2023-05-14T02:31:01.035Z,56.90
2023-05-14T02:33:35.244Z,57.00
2023-05-14T02:36:09.601Z,56.80
2023-05-14T02:38:44.718Z,56.90
2023-05-14T02:41:20.184Z,56.90
2023-05-14T02:43:55.121Z,56.80
2023-05-14T02:46:29.748Z,56.80
2023-05-14T02:49:03.458Z,56.90
2023-05-14T02:51:37.150Z,56.80
2023-05-14T02:54:11.014Z,56.80
2023-05-14T02:56:47.355Z,56.90
2023-05-14T02:59:22.437Z,56.90
2023-05-14T03:01:56.819Z,56.80
2023-05-14T03:04:30.465Z,56.80
2023-05-14T03:07:05.212Z,56.90
2023-05-14T03:09:41.261Z,56.90
2023-05-14T03:12:16.530Z,56.90
2023-05-14T03:14:50.434Z,56.90
2023-05-14T03:17:24.032Z,56.90
2023-05-14T03:19:59.389Z,56.90
2023-05-14T03:22:33.197Z,57.00
2023-05-14T03:25:17.974Z,57.10
2023-05-14T03:27:53.493Z,57.20
2023-05-14T03:30:27.424Z,57.20
2023-05-14T03:33:03.438Z,57.20
2023-05-14T03:35:38.998Z,57.70
2023-05-14T03:38:14.585Z,57.20
2023-05-14T03:40:48.730Z,57.20
2023-05-14T03:43:24.625Z,57.20
2023-05-14T03:45:58.397Z,57.20
2023-05-14T03:48:32.332Z,57.30
2023-05-14T03:51:06.519Z,57.30
2023-05-14T03:53:40.515Z,57.40
2023-05-14T03:56:16.502Z,57.60
2023-05-14T03:58:53.595Z,57.60
2023-05-14T04:01:27.781Z,57.60
2023-05-14T04:04:01.513Z,57.60
2023-05-14T04:06:36.569Z,57.60
2023-05-14T04:09:11.002Z,57.80
2023-05-14T04:11:45.099Z,57.80
2023-05-14T04:14:21.526Z,58.00
2023-05-14T04:16:56.122Z,58.00
2023-05-14T04:19:33.934Z,57.90
2023-05-14T04:22:08.210Z,57.80
2023-05-14T04:24:42.001Z,57.90
2023-05-14T04:27:22.483Z,58.10
2023-05-14T04:29:57.388Z,58.00
2023-05-14T04:32:31.480Z,58.10
2023-05-14T04:35:06.401Z,58.10
2023-05-14T04:37:54.335Z,58.20
2023-05-14T04:40:31.430Z,58.20
2023-05-14T04:43:06.614Z,58.40
2023-05-14T04:45:43.137Z,58.40
2023-05-14T04:48:18.762Z,58.60
2023-05-14T04:50:56.161Z,58.80
2023-05-14T04:53:29.975Z,59.10
2023-05-14T04:56:04.074Z,59.00
2023-05-14T04:58:38.510Z,59.20
2023-05-14T05:01:14.202Z,59.50
2023-05-14T05:03:58.194Z,59.70
2023-05-14T05:06:35.424Z,59.70
2023-05-14T05:09:11.243Z,60.00
2023-05-14T05:11:47.667Z,60.30
2023-05-14T05:14:24.816Z,60.30
2023-05-14T05:17:00.793Z,60.50
2023-05-14T05:19:43.834Z,60.40
2023-05-14T05:22:19.093Z,60.30
2023-05-14T05:25:05.692Z,60.20
2023-05-14T05:27:40.479Z,60.60
2023-05-14T05:30:14.717Z,60.30
2023-05-14T05:32:52.405Z,60.30
2023-05-14T05:35:29.137Z,60.50
2023-05-14T05:38:02.805Z,60.60
2023-05-14T05:40:37.264Z,60.80
2023-05-14T05:43:11.457Z,61.10
2023-05-14T05:45:46.000Z,61.30
2023-05-14T05:48:22.276Z,61.40
2023-05-14T05:50:56.421Z,61.40
2023-05-14T05:53:30.805Z,61.50
2023-05-14T05:56:04.521Z,61.60
2023-05-14T05:58:38.425Z,61.70
2023-05-14T06:01:12.759Z,61.80
2023-05-14T06:03:51.368Z,62.40
2023-05-14T06:06:26.900Z,61.70
2023-05-14T06:09:01.880Z,61.90
2023-05-14T06:11:36.436Z,62.00
2023-05-14T06:14:10.052Z,62.00
2023-05-14T06:16:44.229Z,62.00
2023-05-14T06:19:19.442Z,62.20
2023-05-14T06:21:53.658Z,62.30
2023-05-14T06:24:27.042Z,62.20
2023-05-14T06:27:00.729Z,62.10
2023-05-14T06:29:36.934Z,62.10
2023-05-14T06:32:11.017Z,62.10
2023-05-14T06:34:46.120Z,62.10
2023-05-14T06:37:20.024Z,62.20
2023-05-14T06:39:55.262Z,62.00
2023-05-14T06:42:30.990Z,62.00
2023-05-14T06:45:05.741Z,62.10
2023-05-14T06:47:40.685Z,62.10
2023-05-14T06:50:41.680Z,62.20
2023-05-14T06:53:16.195Z,62.80
2023-05-14T06:55:50.978Z,62.20
2023-05-14T06:58:26.935Z,62.30
2023-05-14T07:01:01.043Z,62.30
2023-05-14T07:03:34.955Z,62.30
2023-05-14T07:06:12.514Z,62.10
2023-05-14T07:08:47.562Z,62.30
2023-05-14T07:11:22.584Z,62.10
2023-05-14T07:13:56.862Z,61.60
2023-05-14T07:16:30.605Z,61.10
2023-05-14T07:19:04.487Z,60.90
2023-05-14T07:21:40.404Z,60.70
2023-05-14T07:24:14.542Z,60.20
2023-05-14T07:26:48.233Z,59.80
2023-05-14T07:29:21.821Z,59.60
2023-05-14T07:31:55.484Z,59.70
2023-05-14T07:34:29.282Z,59.80
2023-05-14T07:37:04.838Z,59.30
2023-05-14T07:39:38.482Z,58.80
2023-05-14T07:42:19.327Z,58.60
2023-05-14T07:44:58.463Z,58.40
2023-05-14T07:47:32.367Z,57.90
2023-05-14T07:50:07.828Z,57.50
2023-05-14T07:52:46.242Z,57.10
2023-05-14T07:55:22.127Z,56.60
2023-05-14T07:57:57.452Z,56.50
2023-05-14T08:00:32.540Z,56.20
2023-05-14T08:03:07.881Z,56.00
2023-05-14T08:05:41.607Z,55.50
2023-05-14T08:08:17.168Z,55.40
2023-05-14T08:10:52.436Z,55.30
2023-05-14T08:13:26.277Z,54.50
2023-05-14T08:16:00.474Z,54.60
2023-05-14T08:18:34.664Z,54.20
2023-05-14T08:21:08.943Z,53.80
2023-05-14T08:23:44.120Z,53.60
2023-05-14T08:26:18.530Z,53.10
2023-05-14T08:28:51.956Z,53.10
2023-05-14T08:31:28.225Z,52.60
2023-05-14T08:34:02.056Z,52.10
2023-05-14T08:36:36.244Z,51.90
2023-05-14T08:39:11.886Z,51.70
2023-05-14T08:41:46.621Z,52.00
2023-05-14T08:44:22.809Z,51.20
2023-05-14T08:46:57.242Z,50.90
2023-05-14T08:49:41.703Z,50.60
2023-05-14T08:52:17.468Z,50.20
2023-05-14T08:54:55.040Z,50.50
2023-05-14T08:57:31.356Z,50.40
2023-05-14T09:00:08.439Z,49.80
2023-05-14T09:02:43.364Z,49.60
2023-05-14T09:05:20.675Z,49.70
2023-05-14T09:07:54.800Z,49.20
2023-05-14T09:10:30.229Z,49.40
2023-05-14T09:13:08.012Z,48.70
2023-05-14T09:15:43.984Z,48.50
2023-05-14T09:18:18.358Z,48.00
2023-05-14T09:20:54.084Z,47.90
2023-05-14T09:23:28.390Z,47.90
2023-05-14T09:26:08.858Z,48.10
2023-05-14T09:28:43.524Z,47.40
2023-05-14T09:31:17.873Z,47.20
2023-05-14T09:33:54.852Z,47.20
2023-05-14T09:36:31.081Z,46.90
2023-05-14T09:39:06.555Z,47.00
2023-05-14T09:41:44.811Z,46.70
2023-05-14T09:44:20.516Z,46.20
2023-05-14T09:46:55.051Z,46.00
2023-05-14T09:49:31.815Z,45.90
2023-05-14T09:52:08.591Z,45.50
2023-05-14T09:54:42.480Z,45.40
2023-05-14T09:57:17.417Z,45.80
2023-05-14T09:59:51.397Z,45.20
2023-05-14T10:02:30.452Z,44.90
2023-05-14T10:05:08.800Z,45.10
2023-05-14T10:07:50.707Z,45.00
2023-05-14T10:10:31.103Z,45.40
2023-05-14T10:13:14.013Z,45.10
2023-05-14T10:15:58.561Z,45.40
2023-05-14T10:18:41.450Z,45.20
2023-05-14T10:21:18.096Z,45.10
2023-05-14T10:23:53.578Z,44.80
2023-05-14T10:26:28.603Z,45.20
2023-05-14T10:29:04.836Z,44.80
2023-05-14T10:31:55.548Z,44.50
2023-05-14T10:34:40.752Z,43.40
2023-05-14T10:37:17.665Z,44.20
2023-05-14T10:39:55.082Z,44.20
2023-05-14T10:42:33.352Z,44.40
2023-05-14T10:45:16.936Z,44.10
2023-05-14T10:47:52.539Z,43.30
2023-05-14T10:50:28.569Z,44.30
2023-05-14T10:53:04.022Z,43.40
2023-05-14T10:55:39.836Z,43.40
2023-05-14T10:58:16.572Z,43.20
2023-05-14T11:00:56.865Z,43.30
2023-05-14T11:03:33.515Z,42.40
2023-05-14T11:06:10.335Z,42.70
2023-05-14T11:08:46.582Z,41.90
2023-05-14T11:11:20.952Z,42.00
2023-05-14T11:13:58.429Z,42.30
2023-05-14T11:16:35.398Z,41.60
2023-05-14T11:19:10.289Z,42.10
2023-05-14T11:21:44.105Z,41.80
2023-05-14T11:24:21.057Z,41.40
2023-05-14T11:26:58.465Z,41.20
2023-05-14T11:29:32.326Z,41.30
2023-05-14T11:32:09.103Z,40.70
2023-05-14T11:34:45.081Z,40.00
2023-05-14T11:37:21.152Z,39.80
2023-05-14T11:39:58.341Z,40.30
2023-05-14T11:42:34.041Z,40.20
2023-05-14T11:45:12.992Z,40.40
2023-05-14T11:47:48.808Z,41.00
2023-05-14T11:50:25.054Z,40.10
2023-05-14T11:52:59.461Z,40.50
2023-05-14T11:55:36.391Z,39.50
2023-05-14T11:58:10.276Z,40.40
2023-05-14T12:00:46.966Z,39.10
2023-05-14T12:03:26.135Z,38.30
2023-05-14T12:06:01.594Z,38.60
2023-05-14T12:08:35.841Z,38.80
2023-05-14T12:11:12.242Z,39.10
2023-05-14T12:13:47.501Z,38.60
2023-05-14T12:16:22.833Z,39.10
2023-05-14T12:19:02.249Z,39.30
2023-05-14T12:21:37.215Z,39.90
2023-05-14T12:24:13.057Z,38.60
2023-05-14T12:26:47.934Z,39.10
2023-05-14T12:29:27.378Z,38.70
2023-05-14T12:32:04.432Z,38.20
2023-05-14T12:34:40.540Z,38.60
2023-05-14T12:37:14.597Z,38.20
2023-05-14T12:39:48.618Z,38.50
2023-05-14T12:42:23.499Z,38.50
2023-05-14T12:45:04.259Z,38.40
2023-05-14T12:47:38.446Z,38.30
2023-05-14T12:50:13.955Z,38.50
2023-05-14T12:52:48.273Z,38.90
2023-05-14T12:55:24.061Z,38.00
2023-05-14T12:57:59.784Z,37.70
2023-05-14T13:00:33.239Z,37.90
2023-05-14T13:03:06.740Z,38.50
2023-05-14T13:05:42.758Z,38.10
2023-05-14T13:08:18.062Z,37.40
2023-05-14T13:10:53.849Z,37.20
2023-05-14T13:13:29.430Z,37.30
2023-05-14T13:16:03.914Z,37.30
2023-05-14T13:18:38.959Z,37.00
2023-05-14T13:21:14.554Z,36.80
2023-05-14T13:23:49.028Z,36.70
2023-05-14T13:26:28.078Z,36.20
2023-05-14T13:29:04.924Z,36.30
2023-05-14T13:31:38.786Z,36.00
2023-05-14T13:34:13.463Z,36.00
2023-05-14T13:36:50.007Z,36.20
2023-05-14T13:39:27.187Z,36.20
2023-05-14T13:42:01.375Z,36.10
2023-05-14T13:44:36.351Z,35.70
2023-05-14T13:47:12.742Z,36.10
2023-05-14T13:49:58.709Z,36.20
2023-05-14T13:52:34.126Z,36.00
2023-05-14T13:55:09.915Z,35.90
2023-05-14T13:57:44.425Z,36.10
2023-05-14T14:00:19.023Z,35.80
2023-05-14T14:02:52.983Z,36.00
2023-05-14T14:05:28.883Z,35.80
2023-05-14T14:08:17.909Z,36.30
2023-05-14T14:10:56.517Z,35.90
2023-05-14T14:13:34.530Z,36.10
2023-05-14T14:16:08.488Z,36.10
2023-05-14T14:18:43.769Z,36.30
2023-05-14T14:21:18.576Z,35.70
2023-05-14T14:23:54.036Z,35.60
2023-05-14T14:26:29.130Z,35.20
2023-05-14T14:29:02.943Z,35.40
2023-05-14T14:31:39.353Z,35.50
2023-05-14T14:34:15.122Z,35.40
2023-05-14T14:36:48.580Z,35.50
2023-05-14T14:39:25.369Z,34.90
2023-05-14T14:42:00.629Z,35.20
2023-05-14T14:44:34.135Z,35.50
2023-05-14T14:47:08.725Z,35.40
2023-05-14T14:49:42.245Z,35.20
2023-05-14T14:52:15.724Z,35.50
2023-05-14T14:54:52.988Z,35.10
2023-05-14T14:57:28.123Z,35.50
2023-05-14T15:00:02.691Z,35.60
2023-05-14T15:02:38.784Z,35.90
2023-05-14T15:05:12.413Z,35.50
2023-05-14T15:07:46.497Z,36.00
2023-05-14T15:10:22.087Z,36.20
2023-05-14T15:12:57.121Z,36.40
2023-05-14T15:15:32.568Z,36.60
2023-05-14T15:18:07.033Z,36.40
2023-05-14T15:20:41.150Z,36.50
2023-05-14T15:23:16.352Z,35.90
2023-05-14T15:25:51.734Z,35.90
2023-05-14T15:28:27.072Z,35.70
2023-05-14T15:31:02.866Z,35.50
2023-05-14T15:33:38.089Z,35.60
2023-05-14T15:36:13.533Z,35.70
2023-05-14T15:38:47.860Z,35.80
2023-05-14T15:41:25.747Z,36.30
2023-05-14T15:44:04.106Z,36.30
2023-05-14T15:46:38.541Z,36.00
2023-05-14T15:49:13.793Z,36.70
2023-05-14T15:51:47.357Z,36.40
2023-05-14T15:54:21.068Z,36.50
2023-05-14T15:56:57.288Z,36.40
2023-05-14T15:59:30.815Z,36.50
2023-05-14T16:02:05.864Z,36.50
2023-05-14T16:04:40.242Z,36.80
2023-05-14T16:07:15.566Z,36.80
2023-05-14T16:09:51.238Z,37.30
2023-05-14T16:12:26.575Z,37.20
2023-05-14T16:15:03.445Z,36.90
2023-05-14T16:17:37.380Z,36.90
2023-05-14T16:20:14.127Z,37.40
2023-05-14T16:22:49.250Z,37.60
2023-05-14T16:25:23.115Z,37.60
2023-05-14T16:27:58.510Z,37.50
2023-05-14T16:30:33.232Z,37.40
2023-05-14T16:33:06.888Z,37.10
2023-05-14T16:35:42.796Z,37.30
2023-05-14T16:38:17.283Z,37.70
2023-05-14T16:40:50.695Z,37.70
2023-05-14T16:43:26.088Z,37.30
2023-05-14T16:46:00.091Z,37.60
2023-05-14T16:48:35.007Z,37.60
2023-05-14T16:51:09.748Z,37.80
2023-05-14T16:53:43.616Z,37.90
2023-05-14T16:56:17.627Z,37.90
2023-05-14T16:58:52.767Z,38.00
2023-05-14T17:01:28.970Z,37.50
2023-05-14T17:04:02.951Z,37.00
2023-05-14T17:06:37.084Z,37.80
2023-05-14T17:09:10.664Z,37.60
2023-05-14T17:11:44.633Z,37.80
2023-05-14T17:14:19.793Z,38.00
2023-05-14T17:16:53.927Z,38.10
2023-05-14T17:19:27.620Z,38.20
2023-05-14T17:22:04.476Z,38.20
2023-05-14T17:24:39.810Z,38.40
2023-05-14T17:27:18.975Z,38.40
2023-05-14T17:29:54.281Z,38.50
2023-05-14T17:32:31.948Z,38.50
2023-05-14T17:35:06.645Z,38.60
2023-05-14T17:37:43.117Z,38.80
2023-05-14T17:40:17.120Z,38.70
2023-05-14T17:42:50.980Z,38.50
2023-05-14T17:45:26.663Z,38.70
2023-05-14T17:48:01.091Z,38.90
2023-05-14T17:50:34.868Z,38.90
2023-05-14T17:53:08.710Z,39.20
2023-05-14T17:55:43.982Z,39.20
2023-05-14T17:58:17.868Z,39.30
2023-05-14T18:00:53.241Z,39.50
2023-05-14T18:03:27.315Z,39.50
2023-05-14T18:06:01.299Z,39.50
2023-05-14T18:08:36.717Z,39.50
2023-05-14T18:11:10.618Z,39.80
2023-05-14T18:13:45.676Z,39.80
2023-05-14T18:16:21.056Z,40.10
2023-05-14T18:18:56.592Z,40.30
2023-05-14T18:21:31.146Z,40.60
2023-05-14T18:24:04.733Z,40.50
2023-05-14T18:26:38.087Z,40.60
2023-05-14T18:29:11.988Z,40.60
2023-05-14T18:31:47.346Z,40.70
2023-05-14T18:34:20.955Z,41.30
2023-05-14T18:36:54.530Z,40.70
2023-05-14T18:39:30.504Z,40.60
2023-05-14T18:42:04.130Z,40.60
2023-05-14T18:44:39.441Z,40.80
2023-05-14T18:47:14.268Z,40.70
2023-05-14T18:49:50.708Z,40.90
2023-05-14T18:52:24.781Z,41.10
2023-05-14T18:54:59.401Z,41.00
2023-05-14T18:57:34.138Z,40.80
2023-05-14T19:00:10.387Z,40.70
2023-05-14T19:02:46.961Z,40.70
2023-05-14T19:05:21.008Z,40.80
2023-05-14T19:07:54.891Z,41.00
2023-05-14T19:10:28.420Z,40.90
2023-05-14T19:13:04.375Z,41.10
2023-05-14T19:15:38.733Z,41.40
2023-05-14T19:18:17.720Z,41.30
2023-05-14T19:20:51.991Z,41.50
2023-05-14T19:23:26.140Z,41.50
2023-05-14T19:26:00.413Z,41.50
2023-05-14T19:28:35.973Z,41.60
2023-05-14T19:31:09.794Z,41.70
2023-05-14T19:33:44.875Z,41.70
2023-05-14T19:36:18.639Z,41.80
2023-05-14T19:38:53.537Z,41.90
2023-05-14T19:41:28.090Z,42.10
2023-05-14T19:44:01.555Z,42.50
2023-05-14T19:46:36.620Z,42.60
2023-05-14T19:49:12.075Z,42.60
2023-05-14T19:51:45.437Z,42.90
2023-05-14T19:54:21.416Z,43.10
2023-05-14T19:56:56.220Z,43.20
2023-05-14T19:59:30.409Z,43.20
2023-05-14T20:02:04.758Z,43.30
2023-05-14T20:04:41.295Z,43.40
2023-05-14T20:07:15.714Z,43.70
2023-05-14T20:09:49.295Z,43.70
2023-05-14T20:12:23.139Z,43.70
2023-05-14T20:14:57.077Z,43.80
2023-05-14T20:17:31.583Z,44.00
2023-05-14T20:20:10.214Z,44.30
2023-05-14T20:22:45.152Z,44.50
2023-05-14T20:25:19.368Z,44.40
2023-05-14T20:27:53.268Z,44.50
2023-05-14T20:30:27.779Z,44.50
2023-05-14T20:33:01.647Z,44.70
2023-05-14T20:35:37.372Z,44.90
2023-05-14T20:38:13.726Z,45.00
2023-05-14T20:40:47.991Z,45.20
2023-05-14T20:43:22.328Z,45.20
2023-05-14T20:46:00.474Z,45.30
2023-05-14T20:48:34.390Z,45.50
2023-05-14T20:51:12.585Z,45.50
2023-05-14T20:53:46.934Z,45.40
2023-05-14T20:56:21.000Z,45.50
2023-05-14T20:58:54.607Z,45.60
2023-05-14T21:01:28.088Z,45.70
2023-05-14T21:04:02.304Z,45.70
2023-05-14T21:06:37.660Z,45.90
2023-05-14T21:09:12.190Z,46.00
2023-05-14T21:11:46.074Z,46.10
2023-05-14T21:14:21.598Z,46.20
2023-05-14T21:16:55.350Z,46.30
2023-05-14T21:19:30.468Z,46.50
2023-05-14T21:22:08.996Z,46.60
2023-05-14T21:24:44.232Z,46.70
2023-05-14T21:27:18.124Z,46.80
2023-05-14T21:29:51.580Z,46.80
2023-05-14T21:32:25.943Z,46.80
2023-05-14T21:35:00.802Z,46.80
2023-05-14T21:37:36.460Z,46.90
2023-05-14T21:40:12.349Z,47.00
2023-05-14T21:42:46.282Z,47.10
2023-05-14T21:45:23.642Z,47.20
2023-05-14T21:48:00.138Z,47.30
2023-05-14T21:50:36.312Z,47.40
2023-05-14T21:53:11.442Z,47.50
2023-05-14T21:55:45.234Z,48.10
2023-05-14T21:58:19.348Z,47.60
2023-05-14T22:00:53.022Z,47.80
2023-05-14T22:03:27.760Z,47.70
2023-05-14T22:06:01.754Z,47.80
2023-05-14T22:08:36.752Z,47.90
2023-05-14T22:11:10.509Z,48.00
2023-05-14T22:13:44.006Z,48.10
2023-05-14T22:16:19.565Z,48.00
2023-05-14T22:18:53.333Z,48.00
2023-05-14T22:21:27.990Z,48.10
2023-05-14T22:24:03.710Z,48.30
2023-05-14T22:26:37.953Z,48.40
2023-05-14T22:29:11.322Z,48.40
2023-05-14T22:31:44.803Z,48.30
2023-05-14T22:34:19.592Z,48.50
2023-05-14T22:36:53.882Z,48.50
2023-05-14T22:39:29.039Z,48.70
2023-05-14T22:42:02.621Z,48.70
2023-05-14T22:44:37.182Z,48.90
2023-05-14T22:47:11.177Z,48.90
2023-05-14T22:49:44.966Z,49.10
2023-05-14T22:52:20.323Z,49.20
2023-05-14T22:54:55.769Z,49.20
2023-05-14T22:57:32.874Z,49.30
2023-05-14T23:00:09.382Z,49.40
2023-05-14T23:02:43.417Z,49.50
2023-05-14T23:05:18.213Z,49.70
2023-05-14T23:07:52.258Z,49.80
2023-05-14T23:10:28.986Z,49.90
2023-05-14T23:13:02.498Z,49.90
2023-05-14T23:15:36.630Z,50.00
2023-05-14T23:18:12.140Z,50.00
2023-05-14T23:20:49.352Z,50.00
2023-05-14T23:23:23.606Z,50.20
2023-05-14T23:25:58.743Z,50.10
2023-05-14T23:28:33.481Z,50.20
2023-05-14T23:31:07.492Z,50.30
2023-05-14T23:33:41.096Z,50.30
2023-05-14T23:36:14.999Z,50.10
2023-05-14T23:38:50.335Z,50.30
2023-05-14T23:41:25.166Z,50.50
2023-05-14T23:43:58.862Z,50.50
2023-05-14T23:46:32.732Z,50.50
2023-05-14T23:49:07.018Z,50.70
2023-05-14T23:51:40.774Z,50.80
2023-05-14T23:54:17.236Z,50.80
2023-05-14T23:56:52.816Z,50.90
2023-05-14T23:59:26.680Z,51.00
